sensor_id;sensor_type;location;lat;lon;timestamp;P1;durP1;ratioP1;P2;durP2;ratioP2
75054;SDS011;63636;44.746;10.488;2022-12-29T00:01:39;101.28;;;34.80;;
75054;SDS011;63636;44.746;10.488;2022-12-29T00:04:05;99.80;;;34.97;;
75054;SDS011;63636;44.746;10.488;2022-12-29T00:06:31;98.93;;;35.28;;
75054;SDS011;63636;44.746;10.488;2022-12-29T00:08:56;96.35;;;34.60;;
75054;SDS011;63636;44.746;10.488;2022-12-29T00:11:23;98.72;;;35.97;;
75054;SDS011;63636;44.746;10.488;2022-12-29T00:13:48;97.15;;;34.97;;
75054;SDS011;63636;44.746;10.488;2022-12-29T00:16:33;96.00;;;35.47;;
75054;SDS011;63636;44.746;10.488;2022-12-29T00:18:59;94.82;;;36.33;;
75054;SDS011;63636;44.746;10.488;2022-12-29T00:21:25;96.15;;;35.53;;
75054;SDS011;63636;44.746;10.488;2022-12-29T00:24:14;100.97;;;34.97;;
75054;SDS011;63636;44.746;10.488;2022-12-29T00:26:40;93.20;;;34.22;;
75054;SDS011;63636;44.746;10.488;2022-12-29T00:29:24;89.95;;;33.92;;
75054;SDS011;63636;44.746;10.488;2022-12-29T00:32:09;89.60;;;27.17;;
75054;SDS011;63636;44.746;10.488;2022-12-29T00:34:53;96.53;;;34.90;;
75054;SDS011;63636;44.746;10.488;2022-12-29T00:37:34;76.75;;;26.63;;
75054;SDS011;63636;44.746;10.488;2022-12-29T00:40:18;91.55;;;34.92;;
75054;SDS011;63636;44.746;10.488;2022-12-29T00:43:02;80.75;;;26.58;;
75054;SDS011;63636;44.746;10.488;2022-12-29T00:45:46;82.40;;;26.90;;
75054;SDS011;63636;44.746;10.488;2022-12-29T00:48:11;80.28;;;27.20;;
75054;SDS011;63636;44.746;10.488;2022-12-29T00:50:37;93.45;;;28.92;;
75054;SDS011;63636;44.746;10.488;2022-12-29T00:53:02;96.03;;;35.10;;
75054;SDS011;63636;44.746;10.488;2022-12-29T00:55:28;96.75;;;35.13;;
75054;SDS011;63636;44.746;10.488;2022-12-29T00:57:53;95.68;;;35.17;;
75054;SDS011;63636;44.746;10.488;2022-12-29T01:00:19;84.57;;;27.70;;
75054;SDS011;63636;44.746;10.488;2022-12-29T01:02:44;84.10;;;27.58;;
75054;SDS011;63636;44.746;10.488;2022-12-29T01:05:10;85.15;;;28.52;;
75054;SDS011;63636;44.746;10.488;2022-12-29T01:07:36;83.22;;;26.95;;
75054;SDS011;63636;44.746;10.488;2022-12-29T01:10:02;80.15;;;26.27;;
75054;SDS011;63636;44.746;10.488;2022-12-29T01:12:37;88.22;;;30.30;;
75054;SDS011;63636;44.746;10.488;2022-12-29T01:15:07;81.32;;;27.02;;
75054;SDS011;63636;44.746;10.488;2022-12-29T01:17:32;76.38;;;26.02;;
75054;SDS011;63636;44.746;10.488;2022-12-29T01:19:58;84.35;;;27.58;;
75054;SDS011;63636;44.746;10.488;2022-12-29T01:22:24;99.20;;;33.95;;
75054;SDS011;63636;44.746;10.488;2022-12-29T01:24:49;85.95;;;29.98;;
75054;SDS011;63636;44.746;10.488;2022-12-29T01:27:15;95.13;;;28.73;;
75054;SDS011;63636;44.746;10.488;2022-12-29T01:29:41;91.50;;;30.30;;
75054;SDS011;63636;44.746;10.488;2022-12-29T01:32:06;96.97;;;30.00;;
75054;SDS011;63636;44.746;10.488;2022-12-29T01:34:32;82.75;;;26.23;;
75054;SDS011;63636;44.746;10.488;2022-12-29T01:36:57;94.65;;;27.02;;
75054;SDS011;63636;44.746;10.488;2022-12-29T01:39:23;92.50;;;31.88;;
75054;SDS011;63636;44.746;10.488;2022-12-29T01:41:49;85.68;;;29.25;;
75054;SDS011;63636;44.746;10.488;2022-12-29T01:46:58;88.20;;;29.75;;
75054;SDS011;63636;44.746;10.488;2022-12-29T01:49:24;97.55;;;31.25;;
75054;SDS011;63636;44.746;10.488;2022-12-29T01:51:57;93.13;;;27.30;;
75054;SDS011;63636;44.746;10.488;2022-12-29T01:54:27;85.53;;;27.23;;
75054;SDS011;63636;44.746;10.488;2022-12-29T01:56:53;91.30;;;27.52;;
75054;SDS011;63636;44.746;10.488;2022-12-29T01:59:21;92.20;;;30.17;;
75054;SDS011;63636;44.746;10.488;2022-12-29T02:01:48;87.03;;;27.92;;
75054;SDS011;63636;44.746;10.488;2022-12-29T02:04:13;90.22;;;29.50;;
75054;SDS011;63636;44.746;10.488;2022-12-29T02:06:55;91.03;;;30.20;;
75054;SDS011;63636;44.746;10.488;2022-12-29T02:09:23;97.47;;;30.58;;
75054;SDS011;63636;44.746;10.488;2022-12-29T02:11:49;88.78;;;26.67;;
75054;SDS011;63636;44.746;10.488;2022-12-29T02:14:17;83.00;;;26.60;;
75054;SDS011;63636;44.746;10.488;2022-12-29T02:24:54;79.90;;;24.50;;
75054;SDS011;63636;44.746;10.488;2022-12-29T02:27:26;94.82;;;31.35;;
75054;SDS011;63636;44.746;10.488;2022-12-29T02:35:23;88.72;;;27.98;;
75054;SDS011;63636;44.746;10.488;2022-12-29T02:42:59;108.57;;;69.07;;
75054;SDS011;63636;44.746;10.488;2022-12-29T02:50:41;90.82;;;28.17;;
75054;SDS011;63636;44.746;10.488;2022-12-29T02:53:13;98.05;;;53.72;;
75054;SDS011;63636;44.746;10.488;2022-12-29T02:55:47;113.68;;;71.80;;
75054;SDS011;63636;44.746;10.488;2022-12-29T02:58:17;84.63;;;26.98;;
75054;SDS011;63636;44.746;10.488;2022-12-29T03:00:48;116.65;;;67.00;;
75054;SDS011;63636;44.746;10.488;2022-12-29T03:03:30;81.25;;;26.08;;
75054;SDS011;63636;44.746;10.488;2022-12-29T03:08:55;88.78;;;27.50;;
75054;SDS011;63636;44.746;10.488;2022-12-29T03:11:25;81.82;;;43.63;;
75054;SDS011;63636;44.746;10.488;2022-12-29T03:16:59;84.68;;;27.80;;
75054;SDS011;63636;44.746;10.488;2022-12-29T03:19:34;94.20;;;27.35;;
75054;SDS011;63636;44.746;10.488;2022-12-29T03:22:02;87.40;;;36.88;;
75054;SDS011;63636;44.746;10.488;2022-12-29T03:24:54;100.07;;;61.80;;
75054;SDS011;63636;44.746;10.488;2022-12-29T03:27:32;89.95;;;27.65;;
75054;SDS011;63636;44.746;10.488;2022-12-29T03:30:03;86.88;;;39.60;;
75054;SDS011;63636;44.746;10.488;2022-12-29T03:32:33;81.88;;;27.80;;
75054;SDS011;63636;44.746;10.488;2022-12-29T03:35:02;84.65;;;27.30;;
75054;SDS011;63636;44.746;10.488;2022-12-29T03:37:34;102.20;;;59.42;;
75054;SDS011;63636;44.746;10.488;2022-12-29T03:40:00;94.07;;;28.88;;
75054;SDS011;63636;44.746;10.488;2022-12-29T03:42:26;88.80;;;28.83;;
75054;SDS011;63636;44.746;10.488;2022-12-29T03:44:54;94.63;;;37.17;;
75054;SDS011;63636;44.746;10.488;2022-12-29T03:47:21;92.50;;;30.10;;
75054;SDS011;63636;44.746;10.488;2022-12-29T03:49:47;98.03;;;30.65;;
75054;SDS011;63636;44.746;10.488;2022-12-29T03:52:15;95.45;;;29.23;;
75054;SDS011;63636;44.746;10.488;2022-12-29T03:54:43;102.15;;;48.88;;
75054;SDS011;63636;44.746;10.488;2022-12-29T03:57:09;93.25;;;38.47;;
75054;SDS011;63636;44.746;10.488;2022-12-29T03:59:45;98.82;;;35.20;;
75054;SDS011;63636;44.746;10.488;2022-12-29T04:02:11;92.75;;;30.38;;
75054;SDS011;63636;44.746;10.488;2022-12-29T04:04:37;96.40;;;30.98;;
75054;SDS011;63636;44.746;10.488;2022-12-29T04:07:02;97.10;;;32.90;;
75054;SDS011;63636;44.746;10.488;2022-12-29T04:09:28;111.30;;;49.22;;
75054;SDS011;63636;44.746;10.488;2022-12-29T04:11:55;96.30;;;32.95;;
75054;SDS011;63636;44.746;10.488;2022-12-29T04:14:21;101.00;;;31.65;;
75054;SDS011;63636;44.746;10.488;2022-12-29T04:16:47;91.72;;;31.60;;
75054;SDS011;63636;44.746;10.488;2022-12-29T04:19:12;97.65;;;29.92;;
75054;SDS011;63636;44.746;10.488;2022-12-29T04:21:38;99.45;;;31.35;;
75054;SDS011;63636;44.746;10.488;2022-12-29T04:24:03;96.05;;;30.20;;
75054;SDS011;63636;44.746;10.488;2022-12-29T04:26:32;104.05;;;31.90;;
75054;SDS011;63636;44.746;10.488;2022-12-29T04:29:12;98.22;;;30.83;;
75054;SDS011;63636;44.746;10.488;2022-12-29T04:31:54;94.18;;;30.85;;
75054;SDS011;63636;44.746;10.488;2022-12-29T04:34:19;96.95;;;30.10;;
75054;SDS011;63636;44.746;10.488;2022-12-29T04:36:46;98.03;;;30.05;;
75054;SDS011;63636;44.746;10.488;2022-12-29T04:39:12;100.45;;;31.45;;
75054;SDS011;63636;44.746;10.488;2022-12-29T04:41:39;97.03;;;30.88;;
75054;SDS011;63636;44.746;10.488;2022-12-29T04:44:07;93.57;;;29.88;;
75054;SDS011;63636;44.746;10.488;2022-12-29T04:47:04;93.45;;;29.33;;
75054;SDS011;63636;44.746;10.488;2022-12-29T04:50:02;91.70;;;30.92;;
75054;SDS011;63636;44.746;10.488;2022-12-29T04:52:38;98.80;;;30.88;;
75054;SDS011;63636;44.746;10.488;2022-12-29T04:55:05;100.45;;;29.50;;
75054;SDS011;63636;44.746;10.488;2022-12-29T04:57:30;100.28;;;32.72;;
75054;SDS011;63636;44.746;10.488;2022-12-29T04:59:58;98.70;;;30.90;;
75054;SDS011;63636;44.746;10.488;2022-12-29T05:02:24;96.07;;;29.48;;
75054;SDS011;63636;44.746;10.488;2022-12-29T05:04:50;100.38;;;31.50;;
75054;SDS011;63636;44.746;10.488;2022-12-29T05:07:16;93.95;;;30.17;;
75054;SDS011;63636;44.746;10.488;2022-12-29T05:09:43;100.43;;;29.30;;
75054;SDS011;63636;44.746;10.488;2022-12-29T05:12:09;103.90;;;30.42;;
75054;SDS011;63636;44.746;10.488;2022-12-29T05:14:45;105.30;;;31.67;;
75054;SDS011;63636;44.746;10.488;2022-12-29T05:17:10;101.15;;;29.92;;
75054;SDS011;63636;44.746;10.488;2022-12-29T05:19:36;99.53;;;32.20;;
75054;SDS011;63636;44.746;10.488;2022-12-29T05:22:03;104.82;;;31.00;;
75054;SDS011;63636;44.746;10.488;2022-12-29T05:24:29;98.85;;;31.85;;
75054;SDS011;63636;44.746;10.488;2022-12-29T05:26:56;92.13;;;33.78;;
75054;SDS011;63636;44.746;10.488;2022-12-29T05:29:46;94.82;;;29.20;;
75054;SDS011;63636;44.746;10.488;2022-12-29T05:32:11;102.32;;;32.03;;
75054;SDS011;63636;44.746;10.488;2022-12-29T05:34:37;102.35;;;32.22;;
75054;SDS011;63636;44.746;10.488;2022-12-29T05:37:03;103.40;;;35.78;;
75054;SDS011;63636;44.746;10.488;2022-12-29T05:39:29;92.57;;;31.90;;
75054;SDS011;63636;44.746;10.488;2022-12-29T05:41:58;108.93;;;41.42;;
75054;SDS011;63636;44.746;10.488;2022-12-29T05:47:15;115.75;;;40.88;;
75054;SDS011;63636;44.746;10.488;2022-12-29T05:50:04;116.50;;;41.33;;
75054;SDS011;63636;44.746;10.488;2022-12-29T05:52:52;121.40;;;40.90;;
75054;SDS011;63636;44.746;10.488;2022-12-29T05:55:19;120.88;;;40.75;;
75054;SDS011;63636;44.746;10.488;2022-12-29T05:57:47;117.57;;;41.00;;
75054;SDS011;63636;44.746;10.488;2022-12-29T06:00:14;120.90;;;41.53;;
75054;SDS011;63636;44.746;10.488;2022-12-29T06:02:40;114.13;;;39.90;;
75054;SDS011;63636;44.746;10.488;2022-12-29T06:05:06;124.40;;;42.30;;
75054;SDS011;63636;44.746;10.488;2022-12-29T06:07:33;128.88;;;41.70;;
75054;SDS011;63636;44.746;10.488;2022-12-29T06:09:58;121.00;;;40.88;;
75054;SDS011;63636;44.746;10.488;2022-12-29T06:12:24;122.32;;;40.72;;
75054;SDS011;63636;44.746;10.488;2022-12-29T06:14:52;118.55;;;40.47;;
75054;SDS011;63636;44.746;10.488;2022-12-29T06:17:18;118.03;;;40.85;;
75054;SDS011;63636;44.746;10.488;2022-12-29T06:19:44;116.47;;;41.03;;
75054;SDS011;63636;44.746;10.488;2022-12-29T06:22:09;129.65;;;40.05;;
75054;SDS011;63636;44.746;10.488;2022-12-29T06:24:39;126.65;;;42.05;;
75054;SDS011;63636;44.746;10.488;2022-12-29T06:27:04;123.60;;;41.03;;
75054;SDS011;63636;44.746;10.488;2022-12-29T06:29:30;125.47;;;40.45;;
75054;SDS011;63636;44.746;10.488;2022-12-29T06:31:56;117.65;;;40.60;;
75054;SDS011;63636;44.746;10.488;2022-12-29T06:34:24;117.03;;;40.80;;
75054;SDS011;63636;44.746;10.488;2022-12-29T06:36:49;114.93;;;40.55;;
75054;SDS011;63636;44.746;10.488;2022-12-29T06:39:15;119.13;;;42.05;;
75054;SDS011;63636;44.746;10.488;2022-12-29T06:44:32;115.07;;;38.47;;
75054;SDS011;63636;44.746;10.488;2022-12-29T06:47:00;118.15;;;38.20;;
75054;SDS011;63636;44.746;10.488;2022-12-29T06:49:26;112.53;;;39.47;;
75054;SDS011;63636;44.746;10.488;2022-12-29T06:51:51;108.50;;;35.85;;
75054;SDS011;63636;44.746;10.488;2022-12-29T06:54:17;113.05;;;38.55;;
75054;SDS011;63636;44.746;10.488;2022-12-29T06:56:42;96.80;;;28.88;;
75054;SDS011;63636;44.746;10.488;2022-12-29T06:59:08;90.85;;;28.60;;
75054;SDS011;63636;44.746;10.488;2022-12-29T07:01:34;96.88;;;29.02;;
75054;SDS011;63636;44.746;10.488;2022-12-29T07:04:01;101.28;;;28.00;;
75054;SDS011;63636;44.746;10.488;2022-12-29T07:06:27;93.88;;;31.45;;
75054;SDS011;63636;44.746;10.488;2022-12-29T07:08:52;100.50;;;28.63;;
75054;SDS011;63636;44.746;10.488;2022-12-29T07:11:20;110.97;;;38.38;;
75054;SDS011;63636;44.746;10.488;2022-12-29T07:13:46;96.07;;;29.10;;
75054;SDS011;63636;44.746;10.488;2022-12-29T07:16:12;94.82;;;29.27;;
75054;SDS011;63636;44.746;10.488;2022-12-29T07:18:37;103.53;;;30.63;;
75054;SDS011;63636;44.746;10.488;2022-12-29T07:21:03;102.82;;;35.25;;
75054;SDS011;63636;44.746;10.488;2022-12-29T07:23:29;97.80;;;32.35;;
75054;SDS011;63636;44.746;10.488;2022-12-29T07:26:05;101.45;;;32.22;;
75054;SDS011;63636;44.746;10.488;2022-12-29T07:28:31;112.15;;;44.35;;
75054;SDS011;63636;44.746;10.488;2022-12-29T07:30:58;108.22;;;44.65;;
75054;SDS011;63636;44.746;10.488;2022-12-29T07:33:23;104.72;;;39.47;;
75054;SDS011;63636;44.746;10.488;2022-12-29T07:35:49;104.93;;;38.70;;
75054;SDS011;63636;44.746;10.488;2022-12-29T07:38:15;106.97;;;49.08;;
75054;SDS011;63636;44.746;10.488;2022-12-29T07:40:41;118.00;;;52.20;;
75054;SDS011;63636;44.746;10.488;2022-12-29T07:43:07;107.40;;;49.05;;
75054;SDS011;63636;44.746;10.488;2022-12-29T07:45:39;104.97;;;45.67;;
75054;SDS011;63636;44.746;10.488;2022-12-29T07:48:07;91.43;;;46.03;;
75054;SDS011;63636;44.746;10.488;2022-12-29T07:50:36;121.50;;;52.30;;
75054;SDS011;63636;44.746;10.488;2022-12-29T07:53:02;118.22;;;52.13;;
75054;SDS011;63636;44.746;10.488;2022-12-29T07:55:28;106.47;;;41.30;;
75054;SDS011;63636;44.746;10.488;2022-12-29T07:57:54;87.35;;;33.20;;
75054;SDS011;63636;44.746;10.488;2022-12-29T08:00:19;100.32;;;30.10;;
75054;SDS011;63636;44.746;10.488;2022-12-29T08:02:45;101.60;;;33.47;;
75054;SDS011;63636;44.746;10.488;2022-12-29T08:05:10;104.00;;;46.13;;
75054;SDS011;63636;44.746;10.488;2022-12-29T08:07:36;96.90;;;40.80;;
75054;SDS011;63636;44.746;10.488;2022-12-29T08:10:02;120.53;;;52.72;;
75054;SDS011;63636;44.746;10.488;2022-12-29T08:12:28;114.30;;;56.72;;
75054;SDS011;63636;44.746;10.488;2022-12-29T08:14:53;90.55;;;27.98;;
75054;SDS011;63636;44.746;10.488;2022-12-29T08:17:19;110.10;;;42.47;;
75054;SDS011;63636;44.746;10.488;2022-12-29T08:19:44;98.00;;;36.03;;
75054;SDS011;63636;44.746;10.488;2022-12-29T08:22:10;93.50;;;37.15;;
75054;SDS011;63636;44.746;10.488;2022-12-29T08:24:35;102.80;;;37.75;;
75054;SDS011;63636;44.746;10.488;2022-12-29T08:27:01;103.28;;;44.15;;
75054;SDS011;63636;44.746;10.488;2022-12-29T08:29:27;117.60;;;52.42;;
75054;SDS011;63636;44.746;10.488;2022-12-29T08:31:53;108.88;;;43.70;;
75054;SDS011;63636;44.746;10.488;2022-12-29T08:34:18;114.95;;;49.95;;
75054;SDS011;63636;44.746;10.488;2022-12-29T08:36:44;137.35;;;82.40;;
75054;SDS011;63636;44.746;10.488;2022-12-29T08:39:09;129.82;;;82.47;;
75054;SDS011;63636;44.746;10.488;2022-12-29T08:41:35;132.35;;;81.72;;
75054;SDS011;63636;44.746;10.488;2022-12-29T08:44:01;136.45;;;83.85;;
75054;SDS011;63636;44.746;10.488;2022-12-29T08:46:26;153.07;;;90.50;;
75054;SDS011;63636;44.746;10.488;2022-12-29T08:48:52;133.18;;;83.50;;
75054;SDS011;63636;44.746;10.488;2022-12-29T08:51:18;131.90;;;86.10;;
75054;SDS011;63636;44.746;10.488;2022-12-29T08:53:44;137.80;;;90.95;;
75054;SDS011;63636;44.746;10.488;2022-12-29T08:56:09;137.73;;;84.43;;
75054;SDS011;63636;44.746;10.488;2022-12-29T08:58:49;156.05;;;99.32;;
75054;SDS011;63636;44.746;10.488;2022-12-29T09:01:16;133.13;;;94.50;;
75054;SDS011;63636;44.746;10.488;2022-12-29T09:03:42;152.32;;;105.30;;
75054;SDS011;63636;44.746;10.488;2022-12-29T09:06:07;132.30;;;94.80;;
75054;SDS011;63636;44.746;10.488;2022-12-29T09:08:33;136.80;;;88.20;;
75054;SDS011;63636;44.746;10.488;2022-12-29T09:11:05;138.15;;;88.22;;
75054;SDS011;63636;44.746;10.488;2022-12-29T09:13:31;128.63;;;91.53;;
75054;SDS011;63636;44.746;10.488;2022-12-29T09:16:00;131.50;;;92.95;;
75054;SDS011;63636;44.746;10.488;2022-12-29T09:18:25;141.07;;;107.57;;
75054;SDS011;63636;44.746;10.488;2022-12-29T09:20:58;147.80;;;108.82;;
75054;SDS011;63636;44.746;10.488;2022-12-29T09:23:24;112.07;;;74.47;;
75054;SDS011;63636;44.746;10.488;2022-12-29T09:25:49;142.57;;;105.50;;
75054;SDS011;63636;44.746;10.488;2022-12-29T09:28:15;144.85;;;101.55;;
75054;SDS011;63636;44.746;10.488;2022-12-29T09:30:41;143.75;;;107.40;;
75054;SDS011;63636;44.746;10.488;2022-12-29T09:33:06;148.55;;;115.07;;
75054;SDS011;63636;44.746;10.488;2022-12-29T09:35:32;130.15;;;99.57;;
75054;SDS011;63636;44.746;10.488;2022-12-29T09:37:58;132.38;;;101.28;;
75054;SDS011;63636;44.746;10.488;2022-12-29T09:40:24;145.85;;;103.93;;
75054;SDS011;63636;44.746;10.488;2022-12-29T09:48:02;149.50;;;110.20;;
75054;SDS011;63636;44.746;10.488;2022-12-29T09:50:29;137.57;;;101.57;;
75054;SDS011;63636;44.746;10.488;2022-12-29T09:53:00;142.20;;;108.40;;
75054;SDS011;63636;44.746;10.488;2022-12-29T09:55:33;136.90;;;105.80;;
75054;SDS011;63636;44.746;10.488;2022-12-29T09:58:02;120.22;;;86.63;;
75054;SDS011;63636;44.746;10.488;2022-12-29T10:03:18;138.98;;;101.65;;
75054;SDS011;63636;44.746;10.488;2022-12-29T10:05:53;143.40;;;100.63;;
75054;SDS011;63636;44.746;10.488;2022-12-29T10:11:17;123.72;;;96.82;;
75054;SDS011;63636;44.746;10.488;2022-12-29T10:18:52;124.82;;;87.15;;
75054;SDS011;63636;44.746;10.488;2022-12-29T10:21:32;124.53;;;88.28;;
75054;SDS011;63636;44.746;10.488;2022-12-29T10:24:02;133.73;;;92.97;;
75054;SDS011;63636;44.746;10.488;2022-12-29T10:26:31;123.18;;;82.30;;
75054;SDS011;63636;44.746;10.488;2022-12-29T10:29:02;116.55;;;74.78;;
75054;SDS011;63636;44.746;10.488;2022-12-29T10:31:36;141.45;;;102.90;;
75054;SDS011;63636;44.746;10.488;2022-12-29T10:34:05;143.73;;;112.45;;
75054;SDS011;63636;44.746;10.488;2022-12-29T10:36:43;134.43;;;100.53;;
75054;SDS011;63636;44.746;10.488;2022-12-29T10:39:20;80.50;;;26.88;;
75054;SDS011;63636;44.746;10.488;2022-12-29T10:41:51;79.65;;;25.95;;
75054;SDS011;63636;44.746;10.488;2022-12-29T10:44:17;75.43;;;24.95;;
75054;SDS011;63636;44.746;10.488;2022-12-29T10:46:44;88.90;;;26.98;;
75054;SDS011;63636;44.746;10.488;2022-12-29T10:49:14;87.18;;;25.88;;
75054;SDS011;63636;44.746;10.488;2022-12-29T10:51:42;81.07;;;25.25;;
75054;SDS011;63636;44.746;10.488;2022-12-29T10:54:11;80.43;;;25.30;;
75054;SDS011;63636;44.746;10.488;2022-12-29T10:56:41;83.13;;;24.02;;
75054;SDS011;63636;44.746;10.488;2022-12-29T10:59:23;82.25;;;24.50;;
75054;SDS011;63636;44.746;10.488;2022-12-29T11:02:36;82.40;;;25.50;;
75054;SDS011;63636;44.746;10.488;2022-12-29T11:04:38;92.43;;;25.92;;
75054;SDS011;63636;44.746;10.488;2022-12-29T11:07:07;98.87;;;29.13;;
75054;SDS011;63636;44.746;10.488;2022-12-29T11:09:33;97.85;;;28.33;;
75054;SDS011;63636;44.746;10.488;2022-12-29T11:12:00;111.10;;;54.85;;
75054;SDS011;63636;44.746;10.488;2022-12-29T11:14:27;105.50;;;35.88;;
75054;SDS011;63636;44.746;10.488;2022-12-29T11:16:59;95.28;;;25.00;;
75054;SDS011;63636;44.746;10.488;2022-12-29T11:19:27;103.15;;;55.50;;
75054;SDS011;63636;44.746;10.488;2022-12-29T11:21:53;114.22;;;31.10;;
75054;SDS011;63636;44.746;10.488;2022-12-29T11:24:26;102.55;;;28.85;;
75054;SDS011;63636;44.746;10.488;2022-12-29T11:26:55;122.05;;;45.63;;
75054;SDS011;63636;44.746;10.488;2022-12-29T11:29:27;107.68;;;34.95;;
75054;SDS011;63636;44.746;10.488;2022-12-29T11:31:57;104.45;;;28.65;;
75054;SDS011;63636;44.746;10.488;2022-12-29T11:34:31;119.93;;;46.10;;
75054;SDS011;63636;44.746;10.488;2022-12-29T11:37:05;104.65;;;29.77;;
75054;SDS011;63636;44.746;10.488;2022-12-29T11:39:33;114.18;;;29.33;;
75054;SDS011;63636;44.746;10.488;2022-12-29T11:41:59;114.20;;;29.90;;
75054;SDS011;63636;44.746;10.488;2022-12-29T11:44:25;106.75;;;29.52;;
75054;SDS011;63636;44.746;10.488;2022-12-29T11:46:50;115.07;;;30.38;;
75054;SDS011;63636;44.746;10.488;2022-12-29T11:49:20;101.82;;;28.90;;
75054;SDS011;63636;44.746;10.488;2022-12-29T11:51:47;113.63;;;30.80;;
75054;SDS011;63636;44.746;10.488;2022-12-29T11:54:24;116.68;;;29.50;;
75054;SDS011;63636;44.746;10.488;2022-12-29T11:56:51;108.70;;;29.80;;
75054;SDS011;63636;44.746;10.488;2022-12-29T12:03:02;113.40;;;30.52;;
75054;SDS011;63636;44.746;10.488;2022-12-29T12:05:05;105.05;;;29.38;;
75054;SDS011;63636;44.746;10.488;2022-12-29T12:07:40;113.53;;;31.55;;
75054;SDS011;63636;44.746;10.488;2022-12-29T12:15:06;113.55;;;32.22;;
75054;SDS011;63636;44.746;10.488;2022-12-29T12:22:43;110.43;;;36.53;;
75054;SDS011;63636;44.746;10.488;2022-12-29T12:27:43;110.53;;;29.05;;
75054;SDS011;63636;44.746;10.488;2022-12-29T12:30:15;107.40;;;29.30;;
75054;SDS011;63636;44.746;10.488;2022-12-29T12:32:58;106.03;;;29.85;;
75054;SDS011;63636;44.746;10.488;2022-12-29T12:35:40;103.70;;;29.17;;
75054;SDS011;63636;44.746;10.488;2022-12-29T12:40:59;106.43;;;29.58;;
75054;SDS011;63636;44.746;10.488;2022-12-29T12:43:37;117.85;;;29.38;;
75054;SDS011;63636;44.746;10.488;2022-12-29T12:59:17;119.60;;;30.25;;
75054;SDS011;63636;44.746;10.488;2022-12-29T13:06:53;117.10;;;31.58;;
75054;SDS011;63636;44.746;10.488;2022-12-29T13:22:08;122.82;;;32.72;;
75054;SDS011;63636;44.746;10.488;2022-12-29T13:24:41;126.20;;;33.15;;
75054;SDS011;63636;44.746;10.488;2022-12-29T13:30:03;115.07;;;31.73;;
75054;SDS011;63636;44.746;10.488;2022-12-29T13:32:32;126.43;;;33.92;;
75054;SDS011;63636;44.746;10.488;2022-12-29T13:37:54;125.50;;;33.75;;
75054;SDS011;63636;44.746;10.488;2022-12-29T13:40:28;132.25;;;35.15;;
75054;SDS011;63636;44.746;10.488;2022-12-29T13:42:59;125.05;;;33.92;;
75054;SDS011;63636;44.746;10.488;2022-12-29T13:45:26;115.50;;;33.15;;
75054;SDS011;63636;44.746;10.488;2022-12-29T13:50:25;117.72;;;32.92;;
75054;SDS011;63636;44.746;10.488;2022-12-29T13:58:07;119.43;;;32.45;;
75054;SDS011;63636;44.746;10.488;2022-12-29T14:01:17;118.15;;;31.70;;
75054;SDS011;63636;44.746;10.488;2022-12-29T14:08:39;112.55;;;33.20;;
75054;SDS011;63636;44.746;10.488;2022-12-29T14:11:09;123.03;;;32.03;;
75054;SDS011;63636;44.746;10.488;2022-12-29T14:13:39;121.50;;;32.30;;
75054;SDS011;63636;44.746;10.488;2022-12-29T14:16:05;112.47;;;31.77;;
75054;SDS011;63636;44.746;10.488;2022-12-29T14:18:32;114.80;;;32.38;;
75054;SDS011;63636;44.746;10.488;2022-12-29T14:28:32;101.53;;;28.77;;
75054;SDS011;63636;44.746;10.488;2022-12-29T14:31:02;107.43;;;31.27;;
75054;SDS011;63636;44.746;10.488;2022-12-29T14:33:32;109.45;;;31.52;;
75054;SDS011;63636;44.746;10.488;2022-12-29T14:38:45;112.78;;;30.05;;
75054;SDS011;63636;44.746;10.488;2022-12-29T14:43:59;112.65;;;30.10;;
75054;SDS011;63636;44.746;10.488;2022-12-29T14:46:40;101.30;;;29.08;;
75054;SDS011;63636;44.746;10.488;2022-12-29T14:49:08;118.18;;;31.58;;
75054;SDS011;63636;44.746;10.488;2022-12-29T14:51:39;105.75;;;29.88;;
75054;SDS011;63636;44.746;10.488;2022-12-29T14:56:49;108.57;;;29.85;;
75054;SDS011;63636;44.746;10.488;2022-12-29T14:59:14;106.18;;;31.70;;
75054;SDS011;63636;44.746;10.488;2022-12-29T15:01:45;100.18;;;28.98;;
75054;SDS011;63636;44.746;10.488;2022-12-29T15:04:17;105.60;;;28.80;;
75054;SDS011;63636;44.746;10.488;2022-12-29T15:06:43;101.78;;;28.58;;
75054;SDS011;63636;44.746;10.488;2022-12-29T15:09:20;132.48;;;88.53;;
75054;SDS011;63636;44.746;10.488;2022-12-29T15:11:50;98.50;;;30.40;;
75054;SDS011;63636;44.746;10.488;2022-12-29T15:14:51;108.05;;;30.80;;
75054;SDS011;63636;44.746;10.488;2022-12-29T15:17:09;113.43;;;34.58;;
75054;SDS011;63636;44.746;10.488;2022-12-29T15:19:36;90.10;;;31.13;;
75054;SDS011;63636;44.746;10.488;2022-12-29T15:22:02;98.05;;;30.73;;
75054;SDS011;63636;44.746;10.488;2022-12-29T15:24:27;102.68;;;34.20;;
75054;SDS011;63636;44.746;10.488;2022-12-29T15:26:53;99.57;;;28.48;;
75054;SDS011;63636;44.746;10.488;2022-12-29T15:29:29;100.30;;;27.98;;
75054;SDS011;63636;44.746;10.488;2022-12-29T15:31:56;102.35;;;31.90;;
75054;SDS011;63636;44.746;10.488;2022-12-29T15:34:22;113.85;;;39.88;;
75054;SDS011;63636;44.746;10.488;2022-12-29T15:36:49;117.55;;;37.65;;
75054;SDS011;63636;44.746;10.488;2022-12-29T15:39:48;101.55;;;31.38;;
75054;SDS011;63636;44.746;10.488;2022-12-29T15:44:34;125.93;;;57.40;;
75054;SDS011;63636;44.746;10.488;2022-12-29T15:47:05;123.38;;;55.33;;
75054;SDS011;63636;44.746;10.488;2022-12-29T15:49:32;115.68;;;48.35;;
75054;SDS011;63636;44.746;10.488;2022-12-29T15:51:57;150.73;;;80.35;;
75054;SDS011;63636;44.746;10.488;2022-12-29T15:54:30;123.82;;;51.60;;
75054;SDS011;63636;44.746;10.488;2022-12-29T15:56:57;111.10;;;40.17;;
75054;SDS011;63636;44.746;10.488;2022-12-29T15:59:24;124.97;;;64.28;;
75054;SDS011;63636;44.746;10.488;2022-12-29T16:01:50;149.43;;;87.70;;
75054;SDS011;63636;44.746;10.488;2022-12-29T16:04:15;115.90;;;53.08;;
75054;SDS011;63636;44.746;10.488;2022-12-29T16:06:45;147.52;;;85.18;;
75054;SDS011;63636;44.746;10.488;2022-12-29T16:09:28;145.40;;;104.18;;
75054;SDS011;63636;44.746;10.488;2022-12-29T16:11:54;168.30;;;110.20;;
75054;SDS011;63636;44.746;10.488;2022-12-29T16:14:21;146.35;;;90.25;;
75054;SDS011;63636;44.746;10.488;2022-12-29T16:16:50;129.20;;;66.78;;
75054;SDS011;63636;44.746;10.488;2022-12-29T16:19:20;130.73;;;85.30;;
75054;SDS011;63636;44.746;10.488;2022-12-29T16:21:46;135.45;;;86.07;;
75054;SDS011;63636;44.746;10.488;2022-12-29T16:24:13;178.55;;;130.88;;
75054;SDS011;63636;44.746;10.488;2022-12-29T16:26:44;160.80;;;121.75;;
75054;SDS011;63636;44.746;10.488;2022-12-29T16:29:11;162.13;;;121.18;;
75054;SDS011;63636;44.746;10.488;2022-12-29T16:31:53;161.15;;;130.38;;
75054;SDS011;63636;44.746;10.488;2022-12-29T16:37:27;193.82;;;147.77;;